createdAt,value
2022-09-18T00:01:16.291Z,99197.09
2022-09-18T00:03:44.101Z,99188.13
2022-09-18T00:06:14.008Z,99189.41
2022-09-18T00:08:43.738Z,99186.44
2022-09-18T00:11:13.966Z,99180.84
2022-09-18T00:13:42.180Z,99179.53
2022-09-18T00:16:12.159Z,99180.53
2022-09-18T00:18:39.785Z,99186.47
2022-09-18T00:21:12.383Z,99198.38
2022-09-18T00:23:40.351Z,99188.53
2022-09-18T00:26:09.311Z,99185.66
2022-09-18T00:28:36.801Z,99195.19
2022-09-18T00:31:09.810Z,99199.72
2022-09-18T00:33:37.687Z,99210.91
2022-09-18T00:36:07.738Z,99209.50
2022-09-18T00:38:34.966Z,99214.59
2022-09-18T00:41:04.105Z,99203.91
2022-09-18T00:43:34.192Z,99205.28
2022-09-18T00:46:19.329Z,99201.41
2022-09-18T00:49:13.548Z,99199.00
2022-09-18T00:51:41.602Z,99190.56
2022-09-18T00:54:16.362Z,99193.59
2022-09-18T00:56:44.583Z,99193.34
2022-09-18T00:59:14.205Z,99191.22
2022-09-18T01:01:41.167Z,99192.00
2022-09-18T01:04:12.459Z,99192.13
2022-09-18T01:07:01.256Z,99190.63
2022-09-18T01:09:50.366Z,99182.94
2022-09-18T01:12:48.189Z,99180.94
2022-09-18T01:15:35.005Z,99191.31
2022-09-18T01:18:41.755Z,99192.59
2022-09-18T01:21:17.993Z,99187.16
2022-09-18T01:24:09.441Z,99184.03
2022-09-18T01:27:05.155Z,99188.72
2022-09-18T01:29:34.898Z,99195.75
2022-09-18T01:32:07.802Z,99188.94
2022-09-18T01:34:38.713Z,99197.63
2022-09-18T01:37:25.607Z,99189.06
2022-09-18T01:40:02.142Z,99191.00
2022-09-18T01:42:30.880Z,99184.56
2022-09-18T01:45:04.512Z,99182.56
2022-09-18T01:47:42.685Z,99184.16
2022-09-18T01:50:12.437Z,99190.72
2022-09-18T01:52:48.826Z,99181.66
2022-09-18T01:55:21.459Z,99178.94
2022-09-18T01:57:58.662Z,99181.94
2022-09-18T02:00:25.867Z,99183.00
2022-09-18T02:03:02.372Z,99184.69
2022-09-18T02:05:38.666Z,99185.31
2022-09-18T02:08:26.524Z,99182.31
2022-09-18T02:11:12.216Z,99184.94
2022-09-18T02:13:44.947Z,99189.19
2022-09-18T02:16:23.313Z,99196.03
2022-09-18T02:18:53.883Z,99190.69
2022-09-18T02:21:27.595Z,99199.41
2022-09-18T02:24:03.249Z,99205.34
2022-09-18T02:26:35.433Z,99206.84
2022-09-18T02:29:05.209Z,99207.41
2022-09-18T02:31:33.064Z,99202.66
2022-09-18T02:34:00.145Z,99209.03
2022-09-18T02:36:37.794Z,99209.16
2022-09-18T02:39:08.315Z,99206.06
2022-09-18T02:41:52.806Z,99202.34
2022-09-18T02:44:28.723Z,99209.97
2022-09-18T02:47:15.241Z,99216.81
2022-09-18T02:50:10.654Z,99210.84
2022-09-18T02:53:01.628Z,99226.63
2022-09-18T02:55:39.605Z,99227.63
2022-09-18T02:58:16.010Z,99228.69
2022-09-18T03:00:49.189Z,99221.50
2022-09-18T03:03:20.298Z,99230.44
2022-09-18T03:05:54.901Z,99237.25
2022-09-18T03:08:23.746Z,99235.81
2022-09-18T03:10:50.849Z,99232.63
2022-09-18T03:13:18.052Z,99246.44
2022-09-18T03:15:49.290Z,99246.56
2022-09-18T03:18:16.363Z,99248.50
2022-09-18T03:20:43.970Z,99249.84
2022-09-18T03:23:11.790Z,99252.97
2022-09-18T03:25:40.012Z,99252.19
2022-09-18T03:28:08.754Z,99270.25
2022-09-18T03:30:40.067Z,99294.75
2022-09-18T03:33:08.084Z,99297.75
2022-09-18T03:35:35.660Z,99298.03
2022-09-18T03:38:02.789Z,99307.00
2022-09-18T03:40:31.466Z,99325.88
2022-09-18T03:43:02.630Z,99318.38
2022-09-18T03:45:29.822Z,99339.84
2022-09-18T03:47:56.846Z,99363.84
2022-09-18T03:50:24.723Z,99367.22
2022-09-18T03:52:52.457Z,99359.25
2022-09-18T03:55:42.154Z,99355.91
2022-09-18T03:58:44.147Z,99381.59
2022-09-18T04:01:20.107Z,99372.81
2022-09-18T04:04:05.314Z,99368.69
2022-09-18T04:07:04.756Z,99385.19
2022-09-18T04:10:07.536Z,99388.94
2022-09-18T04:12:38.126Z,99392.25
2022-09-18T04:15:26.575Z,99395.41
2022-09-18T04:17:53.559Z,99396.84
2022-09-18T04:20:20.476Z,99389.22
2022-09-18T04:22:47.392Z,99400.50
2022-09-18T04:25:16.343Z,99419.75
2022-09-18T04:27:46.177Z,99420.00
2022-09-18T04:30:14.575Z,99436.19
2022-09-18T04:32:46.354Z,99455.25
2022-09-18T04:35:13.346Z,99465.06
2022-09-18T04:37:43.590Z,99475.81
2022-09-18T04:40:12.199Z,99481.66
2022-09-18T04:42:41.387Z,99501.00
2022-09-18T04:45:08.798Z,99511.75
2022-09-18T04:47:35.811Z,99503.50
2022-09-18T04:50:05.297Z,99524.31
2022-09-18T04:52:32.999Z,99541.94
2022-09-18T04:55:01.598Z,99537.84
2022-09-18T04:57:29.768Z,99541.28
2022-09-18T04:59:56.871Z,99549.03
2022-09-18T05:02:24.965Z,99550.81
2022-09-18T05:04:52.996Z,99563.06
2022-09-18T05:07:31.514Z,99549.09
2022-09-18T05:09:58.440Z,99575.94
2022-09-18T05:12:29.740Z,99560.16
2022-09-18T05:14:56.711Z,99589.31
2022-09-18T05:17:24.449Z,99599.34
2022-09-18T05:20:03.673Z,99586.75
2022-09-18T05:22:37.695Z,99595.06
2022-09-18T05:25:09.671Z,99593.81
2022-09-18T05:27:36.946Z,99595.75
2022-09-18T05:30:05.681Z,99595.91
2022-09-18T05:32:59.083Z,99593.28
2022-09-18T05:35:30.472Z,99597.91
2022-09-18T05:37:59.345Z,99589.72
2022-09-18T05:40:31.167Z,99606.69
2022-09-18T05:42:59.739Z,99600.28
2022-09-18T05:45:26.967Z,99600.78
2022-09-18T05:47:59.474Z,99596.28
2022-09-18T05:50:28.448Z,99605.13
2022-09-18T05:53:05.990Z,99602.63
2022-09-18T05:55:41.967Z,99609.41
2022-09-18T05:58:14.565Z,99614.53
2022-09-18T06:00:42.053Z,99620.97
2022-09-18T06:03:15.754Z,99637.78
2022-09-18T06:05:43.694Z,99637.22
2022-09-18T06:08:13.645Z,99629.66
2022-09-18T06:10:41.309Z,99631.69
2022-09-18T06:13:15.694Z,99636.88
2022-09-18T06:15:50.434Z,99628.31
2022-09-18T06:18:21.822Z,99634.38
2022-09-18T06:20:53.877Z,99636.63
2022-09-18T06:23:26.072Z,99637.03
2022-09-18T06:26:10.396Z,99624.34
2022-09-18T06:28:41.117Z,99649.13
2022-09-18T06:31:08.433Z,99655.38
2022-09-18T06:34:02.395Z,99650.34
2022-09-18T06:36:29.261Z,99670.06
2022-09-18T06:39:05.464Z,99679.97
2022-09-18T06:41:32.807Z,99699.50
2022-09-18T06:43:59.737Z,99682.50
2022-09-18T06:46:38.130Z,99676.00
2022-09-18T06:49:23.449Z,99692.78
2022-09-18T06:51:50.612Z,99678.97
2022-09-18T06:54:18.054Z,99701.94
2022-09-18T06:56:46.545Z,99689.41
2022-09-18T06:59:14.409Z,99696.22
2022-09-18T07:01:41.542Z,99712.38
2022-09-18T07:04:25.121Z,99717.78
2022-09-18T07:06:52.057Z,99749.81
2022-09-18T07:09:19.012Z,99707.13
2022-09-18T07:12:04.242Z,99730.69
2022-09-18T07:14:42.498Z,99753.22
2022-09-18T07:17:17.678Z,99758.75
2022-09-18T07:19:46.763Z,99745.59
2022-09-18T07:22:16.233Z,99727.22
2022-09-18T07:24:46.531Z,99727.72
2022-09-18T07:27:14.731Z,99736.22
2022-09-18T07:29:43.115Z,99713.16
2022-09-18T07:32:13.476Z,99716.53
2022-09-18T07:34:43.873Z,99705.59
2022-09-18T07:37:13.733Z,99724.53
2022-09-18T07:39:45.176Z,99715.31
2022-09-18T07:42:30.806Z,99717.31
2022-09-18T07:44:57.858Z,99745.81
2022-09-18T07:47:25.978Z,99741.56
2022-09-18T07:49:53.769Z,99752.25
2022-09-18T07:52:21.455Z,99765.25
2022-09-18T07:54:51.773Z,99774.66
2022-09-18T07:57:36.818Z,99764.09
2022-09-18T08:00:24.451Z,99781.56
2022-09-18T08:02:51.653Z,99789.88
2022-09-18T08:05:42.433Z,99779.13
2022-09-18T08:08:13.190Z,99793.44
2022-09-18T08:11:03.358Z,99777.22
2022-09-18T08:13:36.488Z,99787.44
2022-09-18T08:16:21.936Z,99778.03
2022-09-18T08:19:09.657Z,99777.13
2022-09-18T08:21:50.474Z,99788.25
2022-09-18T08:24:18.042Z,99778.41
2022-09-18T08:26:46.375Z,99769.28
2022-09-18T08:29:19.155Z,99782.91
2022-09-18T08:31:58.630Z,99794.94
2022-09-18T08:34:25.697Z,99799.63
2022-09-18T08:36:54.811Z,99812.28
2022-09-18T08:39:25.625Z,99793.19
2022-09-18T08:42:04.197Z,99805.72
2022-09-18T08:44:47.204Z,99793.97
2022-09-18T08:47:26.780Z,99798.47
2022-09-18T08:50:02.310Z,99817.59
2022-09-18T08:52:33.219Z,99783.88
2022-09-18T08:55:15.074Z,99801.34
2022-09-18T08:58:03.539Z,99827.34
2022-09-18T09:00:37.361Z,99822.38
2022-09-18T09:03:49.992Z,99826.38
2022-09-18T09:06:35.487Z,99821.13
2022-09-18T09:09:32.055Z,99839.22
2022-09-18T09:12:11.215Z,99828.31
2022-09-18T09:14:56.497Z,99830.34
2022-09-18T09:17:39.922Z,99799.91
2022-09-18T09:20:26.626Z,99799.88
2022-09-18T09:23:03.538Z,99808.03
2022-09-18T09:25:32.601Z,99812.34
2022-09-18T09:28:28.543Z,99820.50
2022-09-18T09:31:26.217Z,99794.16
2022-09-18T09:34:24.359Z,99807.56
2022-09-18T09:37:09.606Z,99791.41
2022-09-18T09:39:40.808Z,99805.63
2022-09-18T09:42:23.327Z,99811.38
2022-09-18T09:45:18.283Z,99808.31
2022-09-18T09:47:47.979Z,99814.50
2022-09-18T09:50:52.606Z,99803.84
2022-09-18T09:53:25.927Z,99810.47
2022-09-18T09:56:35.999Z,99803.78
2022-09-18T09:59:40.133Z,99805.16
2022-09-18T10:02:36.425Z,99810.72
2022-09-18T10:05:16.660Z,99799.94
2022-09-18T10:08:03.788Z,99802.09
2022-09-18T10:10:41.407Z,99780.03
2022-09-18T10:13:16.972Z,99770.56
2022-09-18T10:15:48.320Z,99807.19
2022-09-18T10:18:24.747Z,99794.84
2022-09-18T10:20:55.561Z,99794.78
2022-09-18T10:23:33.868Z,99772.91
2022-09-18T10:26:02.964Z,99785.44
2022-09-18T10:28:31.130Z,99787.53
2022-09-18T10:31:05.894Z,99796.16
2022-09-18T10:33:43.540Z,99804.31
2022-09-18T10:36:36.281Z,99815.66
2022-09-18T10:39:31.580Z,99824.19
2022-09-18T10:42:06.825Z,99799.34
2022-09-18T10:44:41.222Z,99810.69
2022-09-18T10:47:23.145Z,99828.09
2022-09-18T10:49:53.733Z,99821.19
2022-09-18T10:52:34.973Z,99821.16
2022-09-18T10:55:12.975Z,99811.50
2022-09-18T10:57:46.180Z,99822.13
2022-09-18T11:00:20.619Z,99848.53
2022-09-18T11:02:55.180Z,99844.06
2022-09-18T11:05:36.116Z,99841.41
2022-09-18T11:08:19.974Z,99863.97
2022-09-18T11:10:51.546Z,99878.53
2022-09-18T11:13:28.440Z,99847.41
2022-09-18T11:16:02.953Z,99879.84
2022-09-18T11:18:32.625Z,99891.94
2022-09-18T11:21:04.824Z,99882.28
2022-09-18T11:23:34.935Z,99897.16
2022-09-18T11:26:15.945Z,99882.88
2022-09-18T11:28:43.897Z,99877.91
2022-09-18T11:31:19.381Z,99880.09
2022-09-18T11:33:56.904Z,99872.38
2022-09-18T11:36:33.227Z,99890.44
2022-09-18T11:39:15.779Z,99880.69
2022-09-18T11:41:49.764Z,99888.94
2022-09-18T11:44:33.262Z,99889.16
2022-09-18T11:47:05.352Z,99874.16
2022-09-18T11:49:39.331Z,99888.53
2022-09-18T11:52:14.283Z,99862.00
2022-09-18T11:54:55.623Z,99896.06
2022-09-18T11:57:31.598Z,99893.53
2022-09-18T12:00:06.136Z,99889.19
2022-09-18T12:02:41.314Z,99865.53
2022-09-18T12:05:33.957Z,99886.47
2022-09-18T12:08:35.616Z,99871.09
2022-09-18T12:11:32.363Z,99857.94
2022-09-18T12:14:00.130Z,99867.09
2022-09-18T12:16:38.435Z,99881.94
2022-09-18T12:19:28.664Z,99864.47
2022-09-18T12:22:08.486Z,99863.94
2022-09-18T12:24:35.448Z,99873.22
2022-09-18T12:27:17.790Z,99867.59
2022-09-18T12:30:02.024Z,99870.69
2022-09-18T12:32:31.807Z,99883.28
2022-09-18T12:35:08.320Z,99868.13
2022-09-18T12:38:01.945Z,99866.91
2022-09-18T12:41:08.061Z,99852.69
2022-09-18T12:43:45.755Z,99898.75
2022-09-18T12:46:46.790Z,99890.66
2022-09-18T12:49:19.891Z,99891.59
2022-09-18T12:52:02.111Z,99889.16
2022-09-18T12:54:51.346Z,99893.22
2022-09-18T12:57:33.084Z,99900.13
2022-09-18T13:00:04.929Z,99878.44
2022-09-18T13:02:40.265Z,99892.44
2022-09-18T13:05:16.469Z,99891.09
2022-09-18T13:07:51.662Z,99900.34
2022-09-18T13:10:42.763Z,99883.81
2022-09-18T13:13:34.818Z,99891.19
2022-09-18T13:16:10.320Z,99905.81
2022-09-18T13:18:58.970Z,99894.94
2022-09-18T13:21:30.023Z,99916.16
2022-09-18T13:23:59.073Z,99910.81
2022-09-18T13:26:30.757Z,99918.19
2022-09-18T13:28:59.211Z,99914.13
2022-09-18T13:31:28.073Z,99926.59
2022-09-18T13:34:17.423Z,99908.84
2022-09-18T13:36:46.182Z,99913.50
2022-09-18T13:39:20.946Z,99933.00
2022-09-18T13:41:53.864Z,99935.75
2022-09-18T13:44:24.512Z,99943.31
2022-09-18T13:46:55.050Z,99948.31
2022-09-18T13:49:37.284Z,99947.44
2022-09-18T13:52:29.529Z,99961.53
2022-09-18T13:55:28.900Z,99960.34
2022-09-18T13:58:33.808Z,99946.50
2022-09-18T14:01:10.585Z,99941.09
2022-09-18T14:03:41.610Z,99950.41
2022-09-18T14:06:36.485Z,99947.44
2022-09-18T14:09:41.209Z,99956.88
2022-09-18T14:12:13.881Z,99972.84
2022-09-18T14:14:42.035Z,99966.78
2022-09-18T14:17:13.603Z,99986.00
2022-09-18T14:19:45.469Z,99993.13
2022-09-18T14:22:32.524Z,99995.97
2022-09-18T14:25:01.958Z,99998.00
2022-09-18T14:27:57.353Z,100015.72
2022-09-18T14:30:29.644Z,100017.00
2022-09-18T14:33:05.697Z,100026.66
2022-09-18T14:35:38.225Z,100023.97
2022-09-18T14:38:24.199Z,100035.09
2022-09-18T14:40:57.369Z,100033.97
2022-09-18T14:43:25.894Z,100040.75
2022-09-18T14:45:54.240Z,100037.34
2022-09-18T14:48:27.784Z,100031.78
2022-09-18T14:51:00.685Z,100055.78
2022-09-18T14:53:29.362Z,100057.53
2022-09-18T14:56:08.027Z,100051.44
2022-09-18T14:58:38.974Z,100068.75
2022-09-18T15:01:08.958Z,100070.97
2022-09-18T15:03:42.937Z,100086.09
2022-09-18T15:06:38.755Z,100086.31
2022-09-18T15:09:07.693Z,100095.66
2022-09-18T15:11:52.533Z,100107.00
2022-09-18T15:14:40.532Z,100117.25
2022-09-18T15:17:22.508Z,100113.94
2022-09-18T15:20:09.769Z,100120.84
2022-09-18T15:22:36.829Z,100124.09
2022-09-18T15:25:04.023Z,100134.66
2022-09-18T15:27:31.814Z,100138.16
2022-09-18T15:30:06.017Z,100139.63
2022-09-18T15:32:40.503Z,100125.59
2022-09-18T15:35:13.134Z,100121.13
2022-09-18T15:37:41.284Z,100140.59
2022-09-18T15:40:17.398Z,100145.59
2022-09-18T15:43:03.598Z,100139.16
2022-09-18T15:45:35.774Z,100125.78
2022-09-18T15:48:34.895Z,100128.09
2022-09-18T15:51:22.868Z,100131.44
2022-09-18T15:54:12.363Z,100140.31
2022-09-18T15:57:00.522Z,100138.78
2022-09-18T15:59:35.292Z,100134.03
2022-09-18T16:02:08.155Z,100148.56
2022-09-18T16:04:36.366Z,100144.47
2022-09-18T16:07:25.165Z,100157.66
2022-09-18T16:09:52.123Z,100145.03
2022-09-18T16:12:31.074Z,100150.13
2022-09-18T16:15:18.761Z,100158.75
2022-09-18T16:17:45.640Z,100177.97
2022-09-18T16:20:29.242Z,100175.69
2022-09-18T16:23:24.243Z,100174.56
2022-09-18T16:26:27.993Z,100172.31
2022-09-18T16:29:19.009Z,100184.25
2022-09-18T16:31:47.183Z,100157.41
2022-09-18T16:34:27.689Z,100179.13
2022-09-18T16:36:56.117Z,100182.56
2022-09-18T16:39:25.162Z,100175.91
2022-09-18T16:41:52.523Z,100174.03
2022-09-18T16:44:19.976Z,100179.56
2022-09-18T16:46:49.635Z,100180.47
2022-09-18T16:49:21.836Z,100191.59
2022-09-18T16:51:49.096Z,100198.56
2022-09-18T16:54:15.961Z,100202.03
2022-09-18T16:56:51.813Z,100202.16
2022-09-18T16:59:25.019Z,100210.28
2022-09-18T17:02:03.743Z,100217.31
2022-09-18T17:04:32.005Z,100219.28
2022-09-18T17:06:58.942Z,100219.97
2022-09-18T17:09:26.243Z,100223.69
2022-09-18T17:11:53.733Z,100234.28
2022-09-18T17:14:21.555Z,100248.50
2022-09-18T17:16:48.536Z,100251.88
2022-09-18T17:19:15.824Z,100258.16
2022-09-18T17:21:42.908Z,100255.56
2022-09-18T17:24:10.998Z,100264.31
2022-09-18T17:26:39.968Z,100268.44
2022-09-18T17:29:07.294Z,100290.19
2022-09-18T17:31:34.289Z,100289.00
2022-09-18T17:34:01.238Z,100290.94
2022-09-18T17:36:28.753Z,100303.28
2022-09-18T17:38:58.416Z,100311.81
2022-09-18T17:41:27.609Z,100312.97
2022-09-18T17:43:54.742Z,100320.34
2022-09-18T17:46:22.078Z,100319.25
2022-09-18T17:48:53.151Z,100315.41
2022-09-18T17:51:20.131Z,100326.97
2022-09-18T17:53:48.704Z,100318.88
2022-09-18T17:56:20.114Z,100328.03
2022-09-18T17:58:47.428Z,100329.44
2022-09-18T18:01:15.726Z,100332.16
2022-09-18T18:03:43.350Z,100336.75
2022-09-18T18:06:11.202Z,100341.72
2022-09-18T18:08:38.493Z,100356.72
2022-09-18T18:11:08.786Z,100362.84
2022-09-18T18:13:37.480Z,100358.34
2022-09-18T18:16:09.794Z,100382.22
2022-09-18T18:18:37.678Z,100389.50
2022-09-18T18:21:06.326Z,100401.56
2022-09-18T18:23:34.590Z,100398.84
2022-09-18T18:26:03.167Z,100398.22
2022-09-18T18:28:32.206Z,100406.81
2022-09-18T18:31:05.876Z,100423.53
2022-09-18T18:33:34.281Z,100419.41
2022-09-18T18:36:21.154Z,100420.56
2022-09-18T18:38:50.552Z,100421.69
2022-09-18T18:41:19.657Z,100425.66
2022-09-18T18:43:46.708Z,100427.50
2022-09-18T18:46:14.812Z,100433.81
2022-09-18T18:48:43.669Z,100429.91
2022-09-18T18:51:14.247Z,100429.44
2022-09-18T18:53:42.793Z,100426.56
2022-09-18T18:56:12.328Z,100429.69
2022-09-18T18:58:39.944Z,100435.94
2022-09-18T19:01:15.622Z,100432.53
2022-09-18T19:03:48.728Z,100427.66
2022-09-18T19:06:15.752Z,100432.94
2022-09-18T19:08:47.305Z,100432.94
2022-09-18T19:11:16.261Z,100434.47
2022-09-18T19:13:44.758Z,100439.63
2022-09-18T19:16:13.219Z,100447.56
2022-09-18T19:18:41.224Z,100454.56
2022-09-18T19:21:08.427Z,100458.19
2022-09-18T19:23:36.073Z,100454.91
2022-09-18T19:26:03.833Z,100461.59
2022-09-18T19:28:31.365Z,100470.38
2022-09-18T19:31:05.365Z,100463.97
2022-09-18T19:33:33.410Z,100459.69
2022-09-18T19:36:05.657Z,100471.81
2022-09-18T19:38:36.388Z,100464.78
2022-09-18T19:41:39.011Z,100477.72
2022-09-18T19:44:12.864Z,100470.56
2022-09-18T19:46:40.689Z,100476.00
2022-09-18T19:49:18.821Z,100472.94
2022-09-18T19:51:46.874Z,100477.13
2022-09-18T19:54:13.959Z,100478.94
2022-09-18T19:56:48.697Z,100487.13
2022-09-18T19:59:17.052Z,100489.97
2022-09-18T20:01:44.673Z,100488.94
2022-09-18T20:04:11.669Z,100501.91
2022-09-18T20:06:40.623Z,100493.34
2022-09-18T20:09:07.830Z,100503.19
2022-09-18T20:11:35.508Z,100504.84
2022-09-18T20:14:02.403Z,100515.66
2022-09-18T20:16:29.494Z,100502.81
2022-09-18T20:18:56.458Z,100505.81
2022-09-18T20:21:24.232Z,100509.03
2022-09-18T20:23:57.327Z,100508.66
2022-09-18T20:26:25.136Z,100509.66
2022-09-18T20:28:52.340Z,100507.19
2022-09-18T20:31:22.637Z,100509.22
2022-09-18T20:33:57.429Z,100512.63
2022-09-18T20:36:25.821Z,100518.16
2022-09-18T20:38:56.658Z,100520.22
2022-09-18T20:41:24.656Z,100519.41
2022-09-18T20:43:55.110Z,100520.72
2022-09-18T20:46:22.484Z,100535.66
2022-09-18T20:48:53.920Z,100532.06
2022-09-18T20:51:24.664Z,100537.88
2022-09-18T20:53:54.348Z,100529.47
2022-09-18T20:56:21.774Z,100527.59
2022-09-18T20:58:51.705Z,100533.22
2022-09-18T21:01:22.071Z,100537.56
2022-09-18T21:03:56.827Z,100529.69
2022-09-18T21:06:26.407Z,100529.47
2022-09-18T21:08:55.234Z,100534.53
2022-09-18T21:11:23.622Z,100529.53
2022-09-18T21:14:03.488Z,100527.53
2022-09-18T21:16:33.381Z,100530.78
2022-09-18T21:19:02.075Z,100528.06
2022-09-18T21:21:32.077Z,100531.41
2022-09-18T21:24:02.386Z,100536.94
2022-09-18T21:26:33.794Z,100540.13
2022-09-18T21:29:04.641Z,100536.41
2022-09-18T21:31:33.640Z,100540.19
2022-09-18T21:34:01.016Z,100535.53
2022-09-18T21:36:28.290Z,100539.94
2022-09-18T21:38:55.562Z,100544.06
2022-09-18T21:41:25.190Z,100541.69
2022-09-18T21:43:54.140Z,100539.22
2022-09-18T21:46:23.850Z,100537.63
2022-09-18T21:48:54.473Z,100539.78
2022-09-18T21:51:21.973Z,100537.66
2022-09-18T21:53:49.364Z,100539.47
2022-09-18T21:56:20.185Z,100544.34
2022-09-18T21:58:48.109Z,100538.00
2022-09-18T22:01:20.905Z,100538.94
2022-09-18T22:03:54.830Z,100536.25
2022-09-18T22:06:32.556Z,100538.16
2022-09-18T22:09:00.166Z,100532.91
2022-09-18T22:11:30.232Z,100531.44
2022-09-18T22:13:59.506Z,100541.91
2022-09-18T22:16:29.587Z,100545.03
2022-09-18T22:18:58.043Z,100535.84
2022-09-18T22:21:30.985Z,100538.00
2022-09-18T22:24:06.531Z,100541.03
2022-09-18T22:26:36.924Z,100545.56
2022-09-18T22:29:08.456Z,100549.97
2022-09-18T22:31:36.643Z,100542.69
2022-09-18T22:34:04.093Z,100534.69
2022-09-18T22:36:31.052Z,100538.31
2022-09-18T22:38:58.024Z,100532.16
2022-09-18T22:41:25.278Z,100541.06
2022-09-18T22:43:57.110Z,100536.25
2022-09-18T22:46:25.739Z,100530.66
2022-09-18T22:48:52.873Z,100531.00
2022-09-18T22:51:24.425Z,100532.78
2022-09-18T22:53:54.448Z,100536.19
2022-09-18T22:56:22.446Z,100541.59
2022-09-18T22:58:50.951Z,100531.84
2022-09-18T23:01:26.698Z,100531.59
2022-09-18T23:03:56.869Z,100527.91
2022-09-18T23:06:25.950Z,100524.06
2022-09-18T23:08:54.387Z,100540.66
2022-09-18T23:11:23.986Z,100536.97
2022-09-18T23:14:02.818Z,100541.91
2022-09-18T23:16:31.787Z,100544.84
2022-09-18T23:19:04.589Z,100542.72
2022-09-18T23:21:33.406Z,100548.31
2022-09-18T23:24:04.850Z,100553.81
2022-09-18T23:26:36.062Z,100563.72
2022-09-18T23:29:06.565Z,100579.63
2022-09-18T23:31:36.843Z,100576.03
2022-09-18T23:34:07.803Z,100575.91
2022-09-18T23:36:37.363Z,100583.75
2022-09-18T23:39:27.005Z,100582.09
2022-09-18T23:41:53.945Z,100570.41
2022-09-18T23:44:22.251Z,100569.53
2022-09-18T23:46:49.720Z,100573.59
2022-09-18T23:49:23.575Z,100576.84
2022-09-18T23:51:52.996Z,100578.13
2022-09-18T23:54:29.783Z,100579.16
2022-09-18T23:56:57.314Z,100581.81
2022-09-18T23:59:25.809Z,100577.50
